Time;durP1;ratioP1;P1;durP2;ratioP2;P2;SDS_P1;SDS_P2;PMS_P1;PMS_P2;Temp;Humidity;BMP_temperature;BMP_pressure;BME280_temperature;BME280_humidity;BME280_pressure;Samples;Min_cycle;Max_cycle;Signal;HPM_P1;HPM_P2
2021/12/19 00:09:47;;;;;;;;;;;;;;;-0.37;100.00;99004.05;1705296;83;20116;-79
2021/12/19 00:12:20;;;;;;;;;;;;;;;-0.36;100.00;98996.23;1727020;83;20112;-75
2021/12/19 00:14:46;;;;;;;;;;;;;;;-0.36;100.00;98990.31;1726144;82;20112;-75
2021/12/19 00:17:13;;;;;;;;;;;;;;;-0.36;100.00;98984.11;1727518;82;20188;-77
2021/12/19 00:19:48;;;;;;;;;;;;;;;-0.36;100.00;98976.83;1705684;83;20128;-78
2021/12/19 00:22:13;;;;;;;;;;;;;;;-0.35;100.00;98976.29;1726362;83;21608;-77
2021/12/19 00:24:43;;;;;;;;;;;;;;;-0.36;100.00;98972.78;1713415;82;20115;-77
2021/12/19 00:27:10;;;;;;;;;;;;;;;-0.35;100.00;98969.55;1743423;82;20118;-77
2021/12/19 00:29:51;;;;;;;;;;;;;;;-0.35;100.00;98968.20;1738524;82;20692;-78
2021/12/19 00:32:08;;;;;;;;;;;;;;;-0.36;100.00;98959.30;1740032;82;20171;-78
2021/12/19 00:34:38;;;;;;;;;;;;;;;-0.34;100.00;98956.34;1743432;82;21055;-77
2021/12/19 00:37:05;;;;;;;;;;;;;;;-0.34;100.00;98949.06;1743553;82;20142;-77
2021/12/19 00:39:37;;;;;;;;;;;;;;;-0.34;100.00;98949.06;1743228;82;20430;-77
2021/12/19 00:42:18;;;;;;;;;;;;;;;-0.32;100.00;98938.55;1742515;82;20123;-77
2021/12/19 00:44:41;;;;;;;;;;;;;;;-0.33;100.00;98940.44;1741133;82;20099;-76
2021/12/19 00:47:10;;;;;;;;;;;;;;;-0.31;100.00;98934.78;1743600;82;21191;-77
2021/12/19 00:49:40;;;;;;;;;;;;;;;-0.32;100.00;98924.53;1742916;82;20115;-76
2021/12/19 00:52:11;;;;;;;;;;;;;;;-0.31;100.00;98922.64;1743631;82;20135;-77
2021/12/19 00:54:40;;;;;;;;;;;;;;;-0.29;100.00;98927.24;1743108;82;20083;-76
2021/12/19 00:57:09;;;;;;;;;;;;;;;-0.30;100.00;98908.90;1714288;82;20610;-76
2021/12/19 00:59:39;;;;;;;;;;;;;;;-0.28;100.00;98896.50;1743640;82;21153;-76
2021/12/19 01:02:15;;;;;;;;;;;;;;;-0.29;100.00;98890.30;1743623;82;20103;-74
2021/12/19 01:04:41;;;;;;;;;;;;;;;-0.28;100.00;98878.44;1743286;81;20119;-76
2021/12/19 01:07:13;;;;;;;;;;;;;;;-0.29;100.00;98868.72;1743547;82;20167;-77
2021/12/19 01:09:42;;;;;;;;;;;;;;;-0.28;100.00;98865.48;1715530;82;20115;-76
2021/12/19 01:12:11;;;;;;;;;;;;;;;-0.29;100.00;98859.81;1715856;82;20698;-76
2021/12/19 01:14:43;;;;;;;;;;;;;;;-0.29;100.00;98847.67;1742654;82;20118;-76
2021/12/19 01:17:14;;;;;;;;;;;;;;;-0.29;100.00;98859.81;1737232;82;20111;-76
2021/12/19 01:19:46;;;;;;;;;;;;;;;-0.28;100.00;98863.59;1743587;82;20107;-75
2021/12/19 01:22:16;;;;;;;;;;;;;;;-0.27;100.00;98851.73;1743591;82;20099;-75
2021/12/19 01:24:46;;;;;;;;;;;;;;;-0.26;100.00;98849.85;1708878;82;20107;-75
2021/12/19 01:27:16;;;;;;;;;;;;;;;-0.27;100.00;98848.23;1734839;82;20406;-75
2021/12/19 01:29:49;;;;;;;;;;;;;;;-0.28;100.00;98833.92;1735691;82;20171;-75
2021/12/19 01:32:17;;;;;;;;;;;;;;;-0.26;100.00;98849.85;1735272;82;20242;-75
2021/12/19 01:34:44;;;;;;;;;;;;;;;-0.26;100.00;98834.48;1735523;82;20083;-75
2021/12/19 01:37:15;;;;;;;;;;;;;;;-0.26;100.00;98843.92;1733776;82;21231;-74
2021/12/19 01:39:40;;;;;;;;;;;;;;;-0.26;100.00;98834.48;1735122;82;20131;-75
2021/12/19 01:42:26;;;;;;;;;;;;;;;-0.25;100.00;98832.59;1705499;82;20100;-75
2021/12/19 01:44:41;;;;;;;;;;;;;;;-0.25;100.00;98832.06;1727448;82;20084;-73
2021/12/19 01:47:10;;;;;;;;;;;;;;;-0.23;100.00;98826.41;1735683;82;20111;-74
2021/12/19 01:49:40;;;;;;;;;;;;;;;-0.23;100.00;98815.07;1735704;82;21193;-75
2021/12/19 01:52:12;;;;;;;;;;;;;;;-0.22;100.00;98811.84;1653086;86;20132;-75
2021/12/19 01:54:45;;;;;;;;;;;;;;;-0.21;100.00;98797.28;1669445;85;20515;-75
2021/12/19 01:57:13;;;;;;;;;;;;;;;-0.22;100.00;98782.98;1673631;84;20559;-75
2021/12/19 01:59:42;;;;;;;;;;;;;;;-0.21;100.00;98777.05;1680182;85;20114;-75
2021/12/19 02:02:11;;;;;;;;;;;;;;;-0.21;100.00;98770.30;1680950;84;21941;-75
2021/12/19 02:04:39;;;;;;;;;;;;;;;-0.23;100.00;98751.69;1680180;85;20086;-75
2021/12/19 02:07:09;;;;;;;;;;;;;;;-0.22;100.00;98747.09;1680453;84;20122;-74
2021/12/19 02:09:45;;;;;;;;;;;;;;;-0.23;100.00;98751.69;1678591;84;20205;-75
2021/12/19 02:12:11;;;;;;;;;;;;;;;-0.23;100.00;98743.59;1680486;84;20142;-74
2021/12/19 02:14:45;;;;;;;;;;;;;;;-0.22;100.00;98744.41;1678349;85;21164;-77
2021/12/19 02:17:13;;;;;;;;;;;;;;;-0.22;100.00;98731.73;1680159;84;20137;-77
2021/12/19 02:19:37;;;;;;;;;;;;;;;-0.22;100.00;98729.56;1680482;85;20118;-76
2021/12/19 02:22:07;;;;;;;;;;;;;;;-0.24;100.00;98725.78;1676901;85;20449;-75
2021/12/19 02:24:37;;;;;;;;;;;;;;;-0.23;100.00;98722.02;1669997;85;20123;-76
2021/12/19 02:27:06;;;;;;;;;;;;;;;-0.23;100.00;98722.02;1683151;84;21534;-75
2021/12/19 02:29:37;;;;;;;;;;;;;;;-0.23;100.00;98711.77;1683098;85;20323;-76
2021/12/19 02:32:10;;;;;;;;;;;;;;;-0.22;100.00;98710.69;1682983;84;20101;-75
2021/12/19 02:34:43;;;;;;;;;;;;;;;-0.23;100.00;98699.63;1682866;84;20209;-76
2021/12/19 02:50:44;;;;;;;;;;;;;;;-0.21;100.00;98674.55;1683160;85;20118;-75
2021/12/19 02:52:58;;;;;;;;;;;;;;;-0.21;100.00;98663.22;1679732;84;21964;-75
2021/12/19 02:55:36;;;;;;;;;;;;;;;-0.20;100.00;98663.48;1670296;85;20098;-76
2021/12/19 02:58:08;;;;;;;;;;;;;;;-0.19;100.00;98650.27;1670105;85;20094;-75
2021/12/19 03:00:37;;;;;;;;;;;;;;;-0.19;100.00;98636.78;1682848;85;20169;-75
2021/12/19 03:03:06;;;;;;;;;;;;;;;-0.18;100.00;98624.91;1670359;85;20429;-75
2021/12/19 03:05:37;;;;;;;;;;;;;;;-0.17;100.00;98631.13;1682530;84;20482;-75
2021/12/19 03:08:08;;;;;;;;;;;;;;;-0.16;100.00;98630.05;1683017;85;20086;-75
2021/12/19 03:18:42;;;;;;;;;;;;;;;-0.13;100.00;98619.53;1683208;85;20150;-78
2021/12/19 03:21:15;;;;;;;;;;;;;;;-0.12;100.00;98620.34;1670008;85;20102;-78
2021/12/19 03:23:44;;;;;;;;;;;;;;;-0.12;100.00;98617.64;1683349;84;20090;-78
2021/12/19 03:26:12;;;;;;;;;;;;;;;-0.14;100.00;98611.70;1690524;84;20089;-77
2021/12/19 03:28:39;;;;;;;;;;;;;;;-0.15;100.00;98601.45;1690997;85;20101;-76
2021/12/19 03:31:10;;;;;;;;;;;;;;;-0.16;100.00;98584.19;1691128;83;20102;-76
2021/12/19 03:33:47;;;;;;;;;;;;;;;-0.17;100.00;98584.72;1648694;85;37668;-76
2021/12/19 03:36:13;;;;;;;;;;;;;;;-0.17;100.00;98587.42;1671167;85;20127;-76
2021/12/19 03:38:44;;;;;;;;;;;;;;;-0.17;100.00;98570.42;1690962;85;20231;-75
2021/12/19 03:41:22;;;;;;;;;;;;;;;-0.17;100.00;98556.94;1670944;85;20117;-74
2021/12/19 03:43:40;;;;;;;;;;;;;;;-0.17;100.00;98560.45;1687988;84;21535;-74
2021/12/19 03:46:13;;;;;;;;;;;;;;;-0.16;100.00;98557.20;1690853;84;20469;-75
2021/12/19 03:48:40;;;;;;;;;;;;;;;-0.17;100.00;98544.80;1691180;84;20098;-74
2021/12/19 03:51:10;;;;;;;;;;;;;;;-0.17;100.00;98544.80;1666477;85;20142;-75
2021/12/19 03:53:43;;;;;;;;;;;;;;;-0.17;100.00;98532.13;1690725;83;20090;-74
2021/12/19 03:56:16;;;;;;;;;;;;;;;-0.16;100.00;98530.23;1691264;83;20592;-73
2021/12/19 03:58:44;;;;;;;;;;;;;;;-0.17;100.00;98522.68;1690517;83;20121;-73
2021/12/19 04:01:11;;;;;;;;;;;;;;;-0.17;100.00;98527.27;1690825;83;20074;-74
2021/12/19 04:03:45;;;;;;;;;;;;;;;-0.16;100.00;98517.55;1690773;83;20652;-74
2021/12/19 04:06:12;;;;;;;;;;;;;;;-0.15;100.00;98518.36;1690276;84;20110;-74
2021/12/19 04:08:41;;;;;;;;;;;;;;;-0.15;100.00;98507.58;1690965;85;21837;-75
2021/12/19 04:11:09;;;;;;;;;;;;;;;-0.14;100.00;98493.81;1690921;84;20097;-74
2021/12/19 04:13:41;;;;;;;;;;;;;;;-0.13;100.00;98494.63;1690686;84;20089;-75
2021/12/19 04:16:11;;;;;;;;;;;;;;;-0.12;100.00;98490.30;1692777;84;20140;-75
2021/12/19 04:18:38;;;;;;;;;;;;;;;-0.10;100.00;98487.34;1687174;84;20131;-75
2021/12/19 04:21:07;;;;;;;;;;;;;;;-0.09;100.00;98487.06;1690186;84;21626;-75
2021/12/19 04:23:38;;;;;;;;;;;;;;;-0.08;100.00;98482.48;1690797;83;20085;-75
2021/12/19 04:26:09;;;;;;;;;;;;;;;-0.07;100.00;98482.20;1692731;84;20461;-74
2021/12/19 04:28:38;;;;;;;;;;;;;;;-0.07;100.00;98471.41;1683237;85;20134;-74
2021/12/19 04:31:07;;;;;;;;;;;;;;;-0.05;100.00;98457.11;1683241;84;20122;-75
2021/12/19 04:33:40;;;;;;;;;;;;;;;-0.04;100.00;98453.33;1679106;84;21311;-75
2021/12/19 04:36:20;;;;;;;;;;;;;;;-0.03;100.00;98442.00;1683473;85;20444;-77
2021/12/19 07:37:21;;;;;;;23.70;12.43;;;;;;;0.77;100.00;98094.23;1728179;81;20947;-73
2021/12/19 07:39:57;;;;;;;22.13;12.30;;;;;;;0.83;100.00;98103.09;1689944;83;21537;-72
2021/12/19 07:42:25;;;;;;;23.77;13.22;;;;;;;0.86;100.00;98116.83;1734991;81;21039;-69
2021/12/19 07:44:53;;;;;;;21.45;11.25;;;;;;;0.89;100.00;98109.50;1743844;81;21366;-72
2021/12/19 07:47:23;;;;;;;28.62;12.55;;;;;;;0.91;100.00;98121.38;1740775;80;20923;-72
2021/12/19 07:49:57;;;;;;;20.68;10.78;;;;;;;0.93;100.00;98128.10;1740856;82;21063;-81
2021/12/19 07:52:27;;;;;;;27.75;12.60;;;;;;;0.96;100.00;98124.02;1726305;82;21604;-79
2021/12/19 07:54:55;;;;;;;26.02;12.68;;;;;;;0.97;100.00;98103.47;1721856;82;21612;-77
2021/12/19 07:57:28;;;;;;;23.45;12.65;;;;;;;0.99;100.00;98069.41;1718487;81;20986;-78
2021/12/19 07:59:56;;;;;;;26.73;13.22;;;;;;;1.00;100.00;98088.58;1730607;82;21541;-75
2021/12/19 08:02:27;;;;;;;25.80;12.85;;;;;;;1.02;100.00;98059.37;1726620;81;21149;-76
2021/12/19 08:04:59;;;;;;;27.42;12.18;;;;;;;1.03;100.00;98035.30;1695422;82;21018;-79
2021/12/19 08:07:28;;;;;;;25.95;12.68;;;;;;;1.02;100.00;98024.23;1698629;82;21112;-80
2021/12/19 08:10:14;;;;;;;31.57;14.95;;;;;;;1.03;100.00;98030.45;1714784;82;21570;-77
2021/12/19 08:12:35;;;;;;;35.45;14.03;;;;;;;1.04;100.00;98009.08;1724875;81;20994;-75
2021/12/19 08:15:11;;;;;;;31.42;15.90;;;;;;;1.03;100.00;98015.58;1715149;81;21015;-77
2021/12/19 08:17:42;;;;;;;34.58;14.68;;;;;;;1.04;100.00;98038.81;1731859;80;21006;-75
2021/12/19 08:20:17;;;;;;;35.83;16.42;;;;;;;1.04;100.00;98037.45;1722649;82;21066;-75
2021/12/19 08:22:48;;;;;;;40.60;16.93;;;;;;;1.03;100.00;98051.52;1725609;82;22154;-83
2021/12/19 08:25:17;;;;;;;29.82;14.00;;;;;;;1.04;100.00;98049.63;1714980;82;21530;-75
2021/12/19 08:27:48;;;;;;;38.38;15.70;;;;;;;1.05;100.00;98066.09;1714531;82;21039;-73
2021/12/19 08:30:24;;;;;;;50.25;18.45;;;;;;;1.05;100.00;98052.03;1693694;83;21073;-72
2021/12/19 08:33:00;;;;;;;41.10;18.00;;;;;;;1.04;100.00;98039.61;1705624;82;20988;-69
2021/12/19 08:35:28;;;;;;;42.67;14.65;;;;;;;1.05;100.00;98024.20;1712752;82;21039;-68
2021/12/19 08:37:55;;;;;;;45.25;19.90;;;;;;;1.07;100.00;97994.98;1742508;81;20987;-70
2021/12/19 08:40:32;;;;;;;46.77;19.27;;;;;;;1.07;100.00;98021.47;1729768;80;21087;-71
2021/12/19 08:43:02;;;;;;;44.70;19.02;;;;;;;1.07;100.00;98007.95;1720085;82;20932;-72
2021/12/19 08:45:34;;;;;;;43.17;18.60;;;;;;;1.08;100.00;97997.41;1718998;81;21161;-70
2021/12/19 08:48:04;;;;;;;41.28;17.70;;;;;;;1.08;100.00;98002.00;1713901;82;22402;-71
2021/12/19 08:50:33;;;;;;;41.83;17.65;;;;;;;1.06;100.00;98006.34;1719013;82;20967;-71
2021/12/19 08:53:04;;;;;;;37.48;16.67;;;;;;;1.06;100.00;97990.13;1748951;80;20995;-71
2021/12/19 08:55:35;;;;;;;36.75;16.95;;;;;;;1.04;100.00;97992.87;1720529;81;20939;-71
2021/12/19 08:58:07;;;;;;;34.92;16.10;;;;;;;1.01;100.00;97973.98;1745255;81;21095;-71
2021/12/19 09:00:37;;;;;;;37.93;15.85;;;;;;;0.99;100.00;97986.44;1744437;80;21533;-71
2021/12/19 09:03:09;;;;;;;;;;;;;;;0.98;100.00;97973.22;1714587;82;20953;-71
2021/12/19 09:05:38;;;;;;;26.57;11.43;;;;;;;0.97;100.00;97972.41;1679817;83;20119;-72
2021/12/19 09:08:08;;;;;;;26.55;12.28;;;;;;;0.97;100.00;97959.45;1681466;84;21087;-72
2021/12/19 09:10:44;;;;;;;31.48;13.20;;;;;;;0.97;100.00;97958.91;1667093;84;20963;-72
2021/12/19 09:13:16;;;;;;;26.23;11.57;;;;;;;0.96;100.00;97953.24;1705026;81;21151;-71
2021/12/19 09:15:42;;;;;;;25.48;10.75;;;;;;;0.95;100.00;97952.19;1682189;83;21098;-73
2021/12/19 09:18:24;;;;;;;25.48;11.80;;;;;;;0.95;100.00;97952.98;1663524;85;21052;-71
2021/12/19 09:20:55;;;;;;;21.40;10.50;;;;;;;0.95;100.00;97948.94;1682050;84;21000;-71
2021/12/19 09:23:22;;;;;;;24.32;10.80;;;;;;;0.97;100.00;97948.64;1720239;80;20944;-70
2021/12/19 09:25:52;;;;;;;23.07;10.60;;;;;;;0.99;100.00;97943.75;1733422;81;21248;-72
2021/12/19 09:28:24;;;;;;;;;;;;;;;0.99;100.00;97940.50;1712430;81;21564;-71
2021/12/19 09:30:57;;;;;;;21.80;10.10;;;;;;;1.01;100.00;97942.91;1701081;83;20212;-74
2021/12/19 09:33:28;;;;;;;23.77;10.48;;;;;;;1.00;100.00;97935.90;1706228;81;21621;-73
2021/12/19 09:36:05;;;;;;;16.97;8.63;;;;;;;1.00;100.00;97931.84;1718954;81;21033;-74
2021/12/19 09:38:36;;;;;;;19.42;9.08;;;;;;;1.01;100.00;97925.89;1637457;84;21811;-79
2021/12/19 09:41:13;;;;;;;17.20;8.80;;;;;;;1.03;100.00;97919.65;1664295;85;21043;-75
2021/12/19 09:43:45;;;;;;;18.30;8.35;;;;;;;1.05;100.00;97910.16;1664280;83;21113;-76
2021/12/19 09:46:22;;;;;;;15.10;7.58;;;;;;;1.06;100.00;97900.15;1663742;83;21150;-77
2021/12/19 09:48:50;;;;;;;14.50;7.37;;;;;;;1.06;100.00;97890.69;1699901;83;21032;-72
2021/12/19 09:51:18;;;;;;;20.80;7.92;;;;;;;1.07;100.00;97880.94;1680134;83;21658;-73
2021/12/19 09:53:51;;;;;;;16.97;7.55;;;;;;;1.08;100.00;97866.33;1654747;85;21011;-73
2021/12/19 09:56:16;;;;;;;14.73;7.78;;;;;;;1.12;100.00;97866.55;1680941;83;21052;-71
2021/12/19 09:58:48;;;;;;;17.05;7.62;;;;;;;1.15;100.00;97861.35;1681508;82;21102;-73
2021/12/19 10:01:17;;;;;;;15.10;7.50;;;;;;;1.20;100.00;97851.78;1697872;83;20968;-71
2021/12/19 10:03:47;;;;;;;16.67;8.65;;;;;;;1.25;100.00;97844.94;1690866;83;21586;-72
2021/12/19 10:06:21;;;;;;;19.12;8.18;;;;;;;1.29;100.00;97833.78;1639420;85;21684;-78
2021/12/19 10:09:18;;;;;;;18.05;8.53;;;;;;;1.35;100.00;97830.98;1702185;82;20963;-76
2021/12/19 10:14:31;;;;;;;18.37;9.03;;;;;;;1.44;100.00;97819.75;1705430;82;20974;-71
2021/12/19 10:17:02;;;;;;;21.93;10.23;;;;;;;1.47;100.00;97815.89;1687874;83;21174;-71
2021/12/19 10:19:54;;;;;;;18.45;9.20;;;;;;;1.49;100.00;97808.28;1691354;83;21062;-70
2021/12/19 10:22:36;;;;;;;22.20;9.43;;;;;;;1.53;100.00;97795.77;1671615;83;21602;-72
2021/12/19 10:25:22;;;;;;;19.30;9.75;;;;;;;1.54;100.00;97794.67;1705737;81;21105;-73
2021/12/19 10:28:06;;;;;;;20.12;9.53;;;;;;;1.58;100.00;97786.76;1695311;83;21525;-81
2021/12/19 10:30:43;;;;;;;17.65;9.00;;;;;;;1.63;100.00;97787.47;1662755;83;22274;-77
2021/12/19 10:33:15;;;;;;;16.45;8.13;;;;;;;1.67;100.00;97789.57;1685880;83;21062;-79
2021/12/19 10:35:56;;;;;;;18.87;8.38;;;;;;;1.71;100.00;97778.40;1653958;84;21069;-75
2021/12/19 10:38:51;;;;;;;16.80;7.97;;;;;;;1.75;100.00;97779.38;1675345;83;21576;-74
2021/12/19 10:41:25;;;;;;;19.50;8.20;;;;;;;1.80;100.00;97770.60;1651623;85;21542;-69
2021/12/19 10:44:07;;;;;;;13.25;6.55;;;;;;;1.85;100.00;97765.09;1678868;83;24125;-69
2021/12/19 10:46:44;;;;;;;12.70;6.87;;;;;;;1.88;100.00;97761.78;1684440;81;20998;-68
2021/12/19 10:49:29;;;;;;;18.02;7.80;;;;;;;1.93;100.00;97755.46;1712286;83;21011;-69
2021/12/19 10:52:05;;;;;;;13.65;6.62;;;;;;;1.94;100.00;97755.16;1697271;83;20972;-72
2021/12/19 10:54:37;;;;;;;12.60;6.00;;;;;;;1.97;100.00;97744.28;1715247;83;21534;-71
2021/12/19 10:57:15;;;;;;;10.23;5.58;;;;;;;1.99;100.00;97738.81;1716410;82;21167;-81
2021/12/19 10:59:53;;;;;;;11.83;5.30;;;;;;;2.04;100.00;97739.81;1713616;83;21466;-84
2021/12/19 11:02:43;;;;;;;11.12;4.92;;;;;;;2.10;100.00;97737.24;1715011;83;21509;-69
2021/12/19 11:05:37;;;;;;;9.48;4.78;;;;;;;2.14;100.00;97731.47;1714369;83;21000;-79
2021/12/19 11:08:11;;;;;;;8.15;5.00;;;;;;;2.17;100.00;97726.80;1714046;83;20963;-79
2021/12/19 11:10:42;;;;;;;8.98;4.22;;;;;;;2.18;100.00;97710.25;1684456;83;21019;-71
2021/12/19 11:13:16;;;;;;;11.78;3.92;;;;;;;2.21;100.00;97715.61;1683628;82;20887;-79
2021/12/19 11:15:43;;;;;;;9.87;4.43;;;;;;;2.23;100.00;97710.14;1705803;82;21418;-77
2021/12/19 11:18:10;;;;;;;6.05;3.27;;;;;;;2.25;100.00;97702.51;1702723;81;20990;-76
2021/12/19 11:20:37;;;;;;;6.55;3.75;;;;;;;2.28;100.00;97697.84;1713340;82;20978;-74
2021/12/19 11:23:03;;;;;;;7.75;3.67;;;;;;;2.32;100.00;97683.10;1712143;81;22406;-77
2021/12/19 11:25:30;;;;;;;9.58;3.95;;;;;;;2.35;100.00;97678.98;1708063;83;21037;-79
2021/12/19 11:27:56;;;;;;;8.48;3.80;;;;;;;2.37;100.00;97678.92;1713981;82;21089;-83
2021/12/19 11:30:24;;;;;;;7.33;3.20;;;;;;;2.38;100.00;97675.10;1669274;83;21377;-85
2021/12/19 11:33:23;;;;;;;11.28;4.33;;;;;;;2.38;100.00;97677.01;1725796;81;21038;-78
2021/12/19 11:35:50;;;;;;;4.35;2.45;;;;;;;2.39;100.00;97659.10;1751981;81;21104;-72
2021/12/19 11:38:19;;;;;;;5.55;3.00;;;;;;;2.46;100.00;97665.44;1718197;81;21039;-72
2021/12/19 11:40:50;;;;;;;5.53;3.15;;;;;;;2.51;100.00;97656.64;1739806;82;20999;-78
2021/12/19 11:43:16;;;;;;;5.78;2.77;;;;;;;2.56;100.00;97653.00;1679647;83;21039;-76
2021/12/19 11:45:47;;;;;;;3.75;2.20;;;;;;;2.61;100.00;97646.91;1684550;85;20968;-77
2021/12/19 11:48:26;;;;;;;4.67;2.70;;;;;;;2.62;100.00;97656.62;1683142;84;21560;-78
2021/12/19 11:51:01;;;;;;;5.60;3.00;;;;;;;2.61;100.00;97659.64;1723482;82;21007;-76
2021/12/19 11:53:39;;;;;;;5.62;2.95;;;;;;;2.59;100.00;97638.84;1682926;84;20948;-75
2021/12/19 11:56:11;;;;;;;3.58;2.12;;;;;;;2.60;100.00;97643.15;1682253;84;21034;-75
2021/12/19 11:58:55;;;;;;;4.25;2.47;;;;;;;2.58;100.00;97652.14;1681510;84;24567;-73
2021/12/19 12:01:29;;;;;;;6.05;3.00;;;;;;;2.58;100.00;97642.66;1711444;83;21143;-72
2021/12/19 12:04:04;;;;;;;7.22;3.35;;;;;;;2.58;100.00;97643.45;1753057;81;20947;-73
2021/12/19 12:06:38;;;;;;;6.72;3.12;;;;;;;2.60;100.00;97637.73;1752224;81;21662;-72
2021/12/19 12:09:25;;;;;;;10.15;3.20;;;;;;;2.57;100.00;97631.02;1753120;81;21059;-72
2021/12/19 12:12:12;;;;;;;6.50;3.17;;;;;;;2.57;100.00;97618.83;1730610;82;20920;-77
2021/12/19 12:14:44;;;;;;;5.05;3.00;;;;;;;2.58;100.00;97634.53;1698876;83;21205;-78
2021/12/19 12:17:18;;;;;;;6.45;2.30;;;;;;;2.56;100.00;97646.23;1711605;83;21098;-76
2021/12/19 12:19:49;;;;;;;5.45;3.05;;;;;;;2.53;100.00;97631.39;1720314;82;20927;-75
2021/12/19 12:22:37;;;;;;;3.45;2.10;;;;;;;2.51;100.00;97653.93;1753175;81;21070;-74
2021/12/19 12:25:16;;;;;;;4.97;2.47;;;;;;;2.50;100.00;97615.77;1749366;81;21573;-75
2021/12/19 12:27:55;;;;;;;4.12;1.80;;;;;;;2.49;100.00;97620.94;1755282;81;21704;-73
2021/12/19 12:30:25;;;;;;;5.20;2.45;;;;;;;2.48;100.00;97641.00;1740265;81;20938;-74
2021/12/19 12:32:52;;;;;;;3.47;1.72;;;;;;;2.47;100.00;97629.13;1747688;80;20947;-79
2021/12/19 12:35:20;;;;;;;5.33;2.87;;;;;;;2.48;100.00;97626.11;1723092;81;21024;-81
2021/12/19 12:37:48;;;;;;;9.78;4.40;;;;;;;2.47;100.00;97617.73;1745023;80;21063;-78
2021/12/19 12:40:25;;;;;;;11.10;5.92;;;;;;;2.48;100.00;97626.11;1747604;80;21168;-78
2021/12/19 12:43:13;;;;;;;13.30;5.08;;;;;;;2.48;100.00;97629.37;1742038;81;20994;-80
2021/12/19 12:46:01;;;;;;;12.43;4.90;;;;;;;2.49;100.00;97626.91;1689361;82;21003;-70
2021/12/19 12:48:39;;;;;;;13.28;4.28;;;;;;;2.49;100.00;97622.29;1731792;82;21655;-70
2021/12/19 12:51:11;;;;;;;14.38;4.40;;;;;;;2.49;100.00;97619.58;1735587;82;21034;-72
2021/12/19 12:53:41;;;;;;;21.30;6.72;;;;;;;2.50;100.00;97613.61;1736348;82;21145;-70
2021/12/19 12:56:14;;;;;;;30.12;8.50;;;;;;;2.49;100.00;97612.81;1690040;82;21002;-77
2021/12/19 12:58:48;;;;;;;8.50;3.22;;;;;;;2.49;100.00;97614.72;1719753;82;20926;-74
2021/12/19 13:01:21;;;;;;;3.02;1.75;;;;;;;2.50;100.00;97625.80;1733934;82;20895;-76
2021/12/19 13:04:07;;;;;;;3.80;1.67;;;;;;;2.50;100.00;97624.44;1742324;81;21489;-77
2021/12/19 13:06:47;;;;;;;4.60;1.50;;;;;;;2.51;100.00;97621.42;1724886;82;21906;-77
2021/12/19 13:09:40;;;;;;;15.03;4.67;;;;;;;2.50;100.00;97620.38;1734179;82;20887;-72
2021/12/19 13:12:16;;;;;;;16.15;5.58;;;;;;;2.50;100.00;97617.11;1743376;81;21443;-71
2021/12/19 13:14:56;;;;;;;10.68;4.22;;;;;;;2.51;100.00;97616.56;1745903;81;20955;-70
2021/12/19 13:17:35;;;;;;;13.40;5.30;;;;;;;2.52;100.00;97623.02;1732084;82;20982;-73
2021/12/19 13:20:16;;;;;;;4.53;2.65;;;;;;;2.53;100.00;97618.41;1661035;85;21132;-73
2021/12/19 13:22:50;;;;;;;5.97;2.53;;;;;;;2.54;100.00;97607.27;1678837;84;21078;-73
2021/12/19 13:25:40;;;;;;;8.20;2.60;;;;;;;2.52;100.00;97602.71;1673545;84;21190;-72
2021/12/19 13:28:15;;;;;;;5.75;2.45;;;;;;;2.54;100.00;97604.55;1661899;85;20930;-74
2021/12/19 13:30:43;;;;;;;8.83;2.70;;;;;;;2.54;100.00;97615.94;1683321;82;21169;-79
2021/12/19 13:33:19;;;;;;;16.75;4.60;;;;;;;2.52;100.00;97595.94;1678706;84;21555;-81
2021/12/19 13:35:52;;;;;;;13.65;4.83;;;;;;;2.51;100.00;97605.17;1680274;84;20924;-77
2021/12/19 13:38:24;;;;;;;9.53;3.65;;;;;;;2.49;100.00;97601.17;1675227;84;21161;-81
2021/12/19 13:41:02;;;;;;;6.87;2.95;;;;;;;2.47;100.00;97613.67;1643574;85;21079;-79
2021/12/19 13:43:32;;;;;;;6.22;2.33;;;;;;;2.44;100.00;97610.78;1648241;86;21092;-77
2021/12/19 13:46:07;;;;;;;7.92;2.37;;;;;;;2.44;100.00;97613.49;1686232;83;21177;-75
2021/12/19 13:48:42;;;;;;;7.67;2.12;;;;;;;2.41;100.00;97614.91;1701076;83;21008;-75
2021/12/19 13:51:16;;;;;;;10.53;3.08;;;;;;;2.42;100.00;97614.35;1709399;83;21487;-74
2021/12/19 13:53:45;;;;;;;6.40;2.58;;;;;;;2.41;100.00;97609.49;1705552;83;21122;-74
2021/12/19 13:56:26;;;;;;;16.32;3.67;;;;;;;2.40;100.00;97611.95;1701912;82;20961;-74
2021/12/19 13:58:57;;;;;;;9.13;3.02;;;;;;;2.38;100.00;97618.23;1693521;83;21177;-75
2021/12/19 14:01:36;;;;;;;5.30;1.87;;;;;;;2.37;100.00;97611.22;1660393;85;21110;-74
2021/12/19 14:04:27;;;;;;;9.75;3.17;;;;;;;2.35;100.00;97598.55;1698447;83;20907;-70
2021/12/19 14:06:57;;;;;;;7.97;3.05;;;;;;;2.34;100.00;97613.19;1677553;84;21064;-74
2021/12/19 14:09:25;;;;;;;9.15;3.47;;;;;;;2.33;100.00;97596.70;1692751;82;21022;-72
2021/12/19 14:11:57;;;;;;;6.08;3.25;;;;;;;2.32;100.00;97621.63;1712031;83;20996;-77
2021/12/19 14:14:30;;;;;;;5.12;2.40;;;;;;;2.30;100.00;97612.23;1701539;83;21521;-82
2021/12/19 14:17:06;;;;;;;8.28;4.33;;;;;;;2.30;100.00;97620.36;1703415;83;20921;-80
2021/12/19 14:19:36;;;;;;;5.72;2.42;;;;;;;2.29;100.00;97618.20;1699951;83;20939;-82
2021/12/19 14:22:09;;;;;;;6.27;2.70;;;;;;;2.29;100.00;97611.99;1704761;83;20980;-79
2021/12/19 14:24:45;;;;;;;5.35;3.15;;;;;;;2.28;100.00;97613.90;1705034;83;21078;-80
2021/12/19 14:27:26;;;;;;;7.47;2.83;;;;;;;2.27;100.00;97605.53;1705977;82;21012;-78
2021/12/19 14:30:00;;;;;;;6.58;2.58;;;;;;;2.28;100.00;97604.42;1685951;83;21103;-77
2021/12/19 14:32:30;;;;;;;7.85;3.25;;;;;;;2.28;100.00;97615.25;1686401;83;21475;-78
2021/12/19 14:35:04;;;;;;;6.72;2.40;;;;;;;2.27;100.00;97614.20;1670236;83;20992;-75
2021/12/19 14:37:35;;;;;;;10.53;3.55;;;;;;;2.26;100.00;97608.55;1675126;83;21805;-74
2021/12/19 14:40:17;;;;;;;5.70;2.58;;;;;;;2.26;100.00;97613.41;1704752;82;21332;-76
2021/12/19 14:42:52;;;;;;;8.18;3.35;;;;;;;2.26;100.00;97609.34;1696237;83;21031;-77
2021/12/19 14:45:50;;;;;;;6.67;3.70;;;;;;;2.28;100.00;97611.19;1696652;83;21109;-76
2021/12/19 14:48:21;;;;;;;9.28;3.75;;;;;;;2.31;100.00;97609.78;1699333;83;20996;-77
2021/12/19 14:50:55;;;;;;;10.30;3.67;;;;;;;2.30;100.00;97617.66;1695455;83;21201;-76
2021/12/19 14:53:30;;;;;;;14.30;4.22;;;;;;;2.31;100.00;97613.25;1691348;83;21043;-79
2021/12/19 14:56:10;;;;;;;8.88;4.10;;;;;;;2.30;100.00;97600.05;1653735;85;21192;-77
2021/12/19 14:58:42;;;;;;;10.30;3.40;;;;;;;2.32;100.00;97600.52;1677446;84;20920;-77
2021/12/19 15:01:18;;;;;;;8.35;3.17;;;;;;;2.32;100.00;97600.52;1659188;84;21111;-77
2021/12/19 15:03:51;;;;;;;7.22;3.10;;;;;;;2.33;100.00;97583.16;1704061;83;21141;-79
2021/12/19 15:06:23;;;;;;;7.20;3.62;;;;;;;2.35;100.00;97595.84;1702060;83;21000;-80
2021/12/19 15:08:50;;;;;;;8.70;3.22;;;;;;;2.37;100.00;97583.34;1699066;83;21582;-77
2021/12/19 15:11:17;;;;;;;6.87;3.58;;;;;;;2.36;100.00;97595.28;1669256;84;21099;-80
2021/12/19 15:13:43;;;;;;;7.62;3.83;;;;;;;2.34;100.00;97601.00;1680666;85;21487;-75
2021/12/19 15:16:10;;;;;;;8.43;3.85;;;;;;;2.32;100.00;97590.48;1665415;84;21751;-74
2021/12/19 15:18:36;;;;;;;10.98;4.35;;;;;;;2.33;100.00;97585.87;1671655;85;21079;-76
2021/12/19 15:21:04;;;;;;;8.85;2.70;;;;;;;2.33;100.00;97592.64;1672432;83;21079;-77
2021/12/19 15:23:30;;;;;;;6.45;3.10;;;;;;;2.32;100.00;97584.27;1708157;81;22221;-74
2021/12/19 15:25:59;;;;;;;7.62;2.98;;;;;;;2.32;100.00;97589.12;1710823;82;21022;-75
2021/12/19 15:28:26;;;;;;;8.10;2.85;;;;;;;2.33;100.00;97588.58;1717515;81;21493;-75
2021/12/19 15:30:55;;;;;;;8.40;3.10;;;;;;;2.33;100.00;97589.38;1724669;81;21099;-78
2021/12/19 15:33:23;;;;;;;6.25;2.58;;;;;;;2.33;100.00;97582.61;1733945;81;20910;-79
2021/12/19 15:35:49;;;;;;;13.05;3.50;;;;;;;2.36;100.00;97581.19;1710233;82;21070;-77
2021/12/19 15:38:16;;;;;;;9.00;3.22;;;;;;;2.35;100.00;97574.17;1732760;81;21048;-78
2021/12/19 15:40:43;;;;;;;10.23;2.90;;;;;;;2.35;100.00;97570.11;1736323;82;21557;-77
2021/12/19 15:43:10;;;;;;;8.45;3.35;;;;;;;2.35;100.00;97577.44;1732631;82;21016;-80
2021/12/19 15:45:37;;;;;;;4.95;2.45;;;;;;;2.35;100.00;97570.11;1719919;82;21085;-78